createdAt,value
2022-12-25T00:01:50.799Z,100651.75
2022-12-25T00:04:17.166Z,100654.16
2022-12-25T00:06:43.562Z,100654.72
2022-12-25T00:09:09.923Z,100652.88
2022-12-25T00:11:36.280Z,100642.31
2022-12-25T00:14:02.650Z,100652.56
2022-12-25T00:16:29.051Z,100647.16
2022-12-25T00:18:55.513Z,100647.94
2022-12-25T00:21:21.921Z,100642.31
2022-12-25T00:23:48.319Z,100657.34
2022-12-25T00:26:14.732Z,100650.59
2022-12-25T00:28:41.133Z,100644.25
2022-12-25T00:31:07.589Z,100642.47
2022-12-25T00:33:34.037Z,100633.19
2022-12-25T00:36:00.481Z,100628.84
2022-12-25T00:38:26.924Z,100634.44
2022-12-25T00:40:53.307Z,100642.09
2022-12-25T00:43:19.665Z,100654.00
2022-12-25T00:45:46.052Z,100643.56
2022-12-25T00:48:12.595Z,100645.47
2022-12-25T00:50:38.989Z,100622.63
2022-12-25T00:53:05.358Z,100620.22
2022-12-25T00:55:31.754Z,100622.19
2022-12-25T00:57:58.134Z,100615.97
2022-12-25T01:00:24.484Z,100612.94
2022-12-25T01:02:50.956Z,100603.50
2022-12-25T01:05:17.388Z,100608.97
2022-12-25T01:07:43.769Z,100605.94
2022-12-25T01:10:10.161Z,100607.44
2022-12-25T01:12:36.533Z,100613.25
2022-12-25T01:15:02.912Z,100612.31
2022-12-25T01:17:29.267Z,100621.69
2022-12-25T01:19:55.665Z,100616.69
2022-12-25T01:22:22.061Z,100612.94
2022-12-25T01:24:48.455Z,100610.03
2022-12-25T01:27:14.827Z,100616.84
2022-12-25T01:29:41.206Z,100621.81
2022-12-25T01:32:07.749Z,100629.56
2022-12-25T01:34:34.260Z,100634.06
2022-12-25T01:37:00.624Z,100632.72
2022-12-25T01:39:27.000Z,100633.19
2022-12-25T01:41:53.452Z,100638.19
2022-12-25T01:44:19.818Z,100624.25
2022-12-25T01:46:46.184Z,100638.25
2022-12-25T01:49:12.562Z,100627.91
2022-12-25T01:51:38.922Z,100629.44
2022-12-25T01:54:05.289Z,100628.03
2022-12-25T01:56:31.637Z,100628.16
2022-12-25T01:58:58.020Z,100626.34
2022-12-25T02:01:24.436Z,100628.03
2022-12-25T02:03:50.929Z,100627.28
2022-12-25T02:06:17.318Z,100606.38
2022-12-25T02:08:43.701Z,100603.94
2022-12-25T02:11:10.106Z,100609.84
2022-12-25T02:13:36.483Z,100617.69
2022-12-25T02:16:02.966Z,100627.28
2022-12-25T02:18:29.367Z,100609.38
2022-12-25T02:20:55.768Z,100595.03
2022-12-25T02:23:22.150Z,100601.81
2022-12-25T02:25:48.514Z,100598.47
2022-12-25T02:28:14.903Z,100605.72
2022-12-25T02:30:41.262Z,100612.75
2022-12-25T02:33:07.628Z,100619.44
2022-12-25T02:35:34.144Z,100596.72
2022-12-25T02:38:00.510Z,100596.78
2022-12-25T02:40:26.868Z,100598.47
2022-12-25T02:42:53.225Z,100593.66
2022-12-25T02:45:19.598Z,100585.63
2022-12-25T02:47:45.972Z,100588.22
2022-12-25T02:50:12.396Z,100582.13
2022-12-25T02:52:38.809Z,100591.84
2022-12-25T02:55:05.185Z,100593.41
2022-12-25T02:57:31.547Z,100596.84
2022-12-25T02:59:58.051Z,100597.41
2022-12-25T03:02:24.484Z,100590.63
2022-12-25T03:04:50.910Z,100577.00
2022-12-25T03:07:17.447Z,100572.63
2022-12-25T03:09:43.820Z,100569.22
2022-12-25T03:12:10.180Z,100571.22
2022-12-25T03:14:36.617Z,100570.16
2022-12-25T03:17:03.072Z,100568.59
2022-12-25T03:19:29.570Z,100546.88
2022-12-25T03:21:56.062Z,100553.31
2022-12-25T03:24:22.441Z,100548.47
2022-12-25T03:26:48.818Z,100550.28
2022-12-25T03:29:15.294Z,100551.19
2022-12-25T03:31:41.671Z,100546.53
2022-12-25T03:34:08.030Z,100543.25
2022-12-25T03:36:34.416Z,100538.09
2022-12-25T03:39:00.815Z,100547.44
2022-12-25T03:41:27.184Z,100541.72
2022-12-25T03:43:53.579Z,100527.59
2022-12-25T03:46:20.012Z,100520.81
2022-12-25T03:48:46.421Z,100516.41
2022-12-25T03:51:12.804Z,100515.22
2022-12-25T03:53:39.179Z,100518.50
2022-12-25T03:56:05.571Z,100514.59
2022-12-25T03:58:31.934Z,100504.44
2022-12-25T04:00:58.323Z,100481.41
2022-12-25T04:03:24.816Z,100487.78
2022-12-25T04:05:51.284Z,100475.22
2022-12-25T04:08:17.658Z,100475.09
2022-12-25T04:10:44.066Z,100481.88
2022-12-25T04:13:10.430Z,100473.72
2022-12-25T04:15:36.851Z,100465.66
2022-12-25T04:18:03.348Z,100480.88
2022-12-25T04:20:29.717Z,100466.44
2022-12-25T04:22:56.092Z,100444.16
2022-12-25T04:25:22.446Z,100443.25
2022-12-25T04:27:48.794Z,100457.34
2022-12-25T04:30:15.283Z,100467.34
2022-12-25T04:32:41.677Z,100475.38
2022-12-25T04:35:08.033Z,100472.06
2022-12-25T04:37:34.406Z,100464.91
2022-12-25T04:40:00.781Z,100460.09
2022-12-25T04:42:27.194Z,100460.50
2022-12-25T04:44:53.573Z,100464.59
2022-12-25T04:47:19.947Z,100479.59
2022-12-25T04:49:46.311Z,100489.91
2022-12-25T04:52:12.677Z,100495.50
2022-12-25T04:54:39.030Z,100487.16
2022-12-25T04:57:05.405Z,100490.97
2022-12-25T04:59:31.788Z,100484.75
2022-12-25T05:01:58.266Z,100474.28
2022-12-25T05:04:24.707Z,100467.59
2022-12-25T05:06:51.113Z,100451.13
2022-12-25T05:09:17.510Z,100420.38
2022-12-25T05:11:43.866Z,100380.91
2022-12-25T05:14:10.214Z,100383.91
2022-12-25T05:16:36.931Z,100391.47
2022-12-25T05:19:03.293Z,100398.44
2022-12-25T05:21:29.689Z,100416.16
2022-12-25T05:23:56.053Z,100426.63
2022-12-25T05:26:22.437Z,100421.59
2022-12-25T05:28:48.810Z,100423.72
2022-12-25T05:31:15.209Z,100425.06
2022-12-25T05:33:41.723Z,100416.91
2022-12-25T05:36:08.081Z,100406.47
2022-12-25T05:38:34.478Z,100419.91
2022-12-25T05:41:00.874Z,100440.09
2022-12-25T05:43:27.234Z,100438.19
2022-12-25T05:45:53.624Z,100425.38
2022-12-25T05:48:19.993Z,100433.88
2022-12-25T05:50:46.385Z,100433.25
2022-12-25T05:53:12.790Z,100425.84
2022-12-25T05:55:39.174Z,100425.69
2022-12-25T05:58:05.557Z,100422.34
2022-12-25T06:00:31.918Z,100418.28
2022-12-25T06:02:58.380Z,100418.28
2022-12-25T06:05:24.853Z,100423.09
2022-12-25T06:07:51.224Z,100419.19
2022-12-25T06:10:17.592Z,100410.56
2022-12-25T06:12:43.961Z,100404.19
2022-12-25T06:15:10.332Z,100410.41
2022-12-25T06:17:36.721Z,100397.84
2022-12-25T06:20:03.104Z,100386.34
2022-12-25T06:22:29.473Z,100385.44
2022-12-25T06:24:56.004Z,100397.69
2022-12-25T06:27:22.398Z,100393.00
2022-12-25T06:29:48.762Z,100393.69
2022-12-25T06:32:15.277Z,100376.31
2022-12-25T06:34:41.665Z,100370.72
2022-12-25T06:37:08.071Z,100369.22
2022-12-25T06:39:34.445Z,100369.38
2022-12-25T06:42:00.823Z,100363.31
2022-12-25T06:44:27.173Z,100354.22
2022-12-25T06:46:53.552Z,100351.50
2022-12-25T06:49:19.937Z,100355.75
2022-12-25T06:51:46.323Z,100363.16
2022-12-25T06:54:12.676Z,100368.28
2022-12-25T06:56:39.091Z,100374.69
2022-12-25T06:59:05.454Z,100373.59
2022-12-25T07:01:31.918Z,100379.81
2022-12-25T07:03:58.412Z,100389.94
2022-12-25T07:06:24.779Z,100393.56
2022-12-25T07:08:51.123Z,100402.84
2022-12-25T07:11:17.494Z,100389.50
2022-12-25T07:13:43.854Z,100392.06
2022-12-25T07:16:10.294Z,100381.75
2022-12-25T07:18:36.698Z,100369.81
2022-12-25T07:21:03.056Z,100356.94
2022-12-25T07:23:29.432Z,100350.00
2022-12-25T07:25:55.802Z,100326.38
2022-12-25T07:28:22.201Z,100327.25
2022-12-25T07:30:48.562Z,100321.53
2022-12-25T07:33:14.958Z,100316.53
2022-12-25T07:35:41.338Z,100305.47
2022-12-25T07:38:07.687Z,100314.41
2022-12-25T07:40:34.100Z,100305.03
2022-12-25T07:43:00.476Z,100286.84
2022-12-25T07:45:26.976Z,100281.88
2022-12-25T07:47:55.130Z,100274.56
2022-12-25T07:50:21.636Z,100294.38
2022-12-25T07:52:48.012Z,100308.66
2022-12-25T07:55:14.386Z,100328.03
2022-12-25T07:57:40.789Z,100351.50
2022-12-25T08:00:07.163Z,100337.69
2022-12-25T08:02:33.847Z,100336.19
2022-12-25T08:05:00.429Z,100346.31
2022-12-25T08:07:26.808Z,100342.53
2022-12-25T08:09:53.169Z,100351.75
2022-12-25T08:12:19.533Z,100354.03
2022-12-25T08:14:45.903Z,100350.09
2022-12-25T08:17:12.323Z,100348.88
2022-12-25T08:19:38.841Z,100348.25
2022-12-25T08:22:05.232Z,100346.44
2022-12-25T08:24:31.592Z,100341.56
2022-12-25T08:26:57.956Z,100344.78
2022-12-25T08:29:24.347Z,100327.22
2022-12-25T08:31:50.725Z,100328.28
2022-12-25T08:34:17.100Z,100324.81
2022-12-25T08:36:43.588Z,100330.69
2022-12-25T08:39:09.931Z,100327.81
2022-12-25T08:41:36.306Z,100322.69
2022-12-25T08:44:02.673Z,100311.66
2022-12-25T08:46:29.131Z,100322.84
2022-12-25T08:48:55.537Z,100321.97
2022-12-25T08:51:21.895Z,100309.22
2022-12-25T08:53:48.385Z,100303.66
2022-12-25T08:56:14.789Z,100327.72
2022-12-25T08:58:41.164Z,100335.44
2022-12-25T09:01:07.614Z,100332.72
2022-12-25T09:03:34.043Z,100321.22
2022-12-25T09:06:00.420Z,100307.13
2022-12-25T09:08:26.785Z,100309.22
2022-12-25T09:10:53.156Z,100308.16
2022-12-25T09:13:19.559Z,100321.03
2022-12-25T09:15:45.987Z,100329.34
2022-12-25T09:18:12.378Z,100334.72
2022-12-25T09:20:38.764Z,100326.53
2022-12-25T09:23:09.972Z,100336.06
2022-12-25T09:25:39.780Z,100335.41
2022-12-25T09:28:06.172Z,100340.09
2022-12-25T09:30:32.597Z,100336.47
2022-12-25T09:32:59.055Z,100337.69
2022-12-25T09:35:25.551Z,100339.31
2022-12-25T09:37:51.951Z,100328.91
2022-12-25T09:40:18.330Z,100326.78
2022-12-25T09:42:44.699Z,100317.25
2022-12-25T09:45:11.087Z,100322.06
2022-12-25T09:47:37.435Z,100319.34
2022-12-25T09:50:03.822Z,100331.00
2022-12-25T09:52:30.189Z,100332.53
2022-12-25T09:54:56.588Z,100337.56
2022-12-25T09:57:22.991Z,100342.53
2022-12-25T09:59:49.371Z,100331.78
2022-12-25T10:02:15.837Z,100326.31
2022-12-25T10:04:42.405Z,100330.84
2022-12-25T10:07:08.779Z,100314.66
2022-12-25T10:09:35.123Z,100324.81
2022-12-25T10:12:01.515Z,100333.19
2022-12-25T10:14:27.879Z,100322.28
2022-12-25T10:16:54.243Z,100308.66
2022-12-25T10:19:20.739Z,100310.75
2022-12-25T10:21:47.116Z,100312.69
2022-12-25T10:24:13.463Z,100325.56
2022-12-25T10:26:39.864Z,100312.59
2022-12-25T10:29:06.256Z,100310.75
2022-12-25T10:31:32.669Z,100302.75
2022-12-25T10:33:59.097Z,100294.13
2022-12-25T10:36:25.470Z,100309.13
2022-12-25T10:38:51.838Z,100322.44
2022-12-25T10:41:18.329Z,100330.16
2022-12-25T10:43:44.692Z,100317.59
2022-12-25T10:46:11.151Z,100312.00
2022-12-25T10:48:37.544Z,100293.50
2022-12-25T10:51:03.924Z,100292.16
2022-12-25T10:53:30.310Z,100294.41
2022-12-25T10:55:56.683Z,100302.78
2022-12-25T10:58:23.097Z,100301.53
2022-12-25T11:00:49.487Z,100309.88
2022-12-25T11:03:16.021Z,100308.06
2022-12-25T11:05:42.479Z,100298.22
2022-12-25T11:08:08.858Z,100302.31
2022-12-25T11:10:35.221Z,100296.69
2022-12-25T11:13:01.619Z,100293.38
2022-12-25T11:15:28.012Z,100292.47
2022-12-25T11:17:54.427Z,100296.41
2022-12-25T11:20:20.783Z,100294.88
2022-12-25T11:22:47.170Z,100308.97
2022-12-25T11:25:13.536Z,100317.59
2022-12-25T11:27:39.916Z,100326.69
2022-12-25T11:30:07.854Z,100340.63
2022-12-25T11:32:37.958Z,100358.03
2022-12-25T11:35:04.349Z,100343.66
2022-12-25T11:37:30.721Z,100336.09
2022-12-25T11:39:57.137Z,100334.56
2022-12-25T11:42:23.511Z,100332.44
2022-12-25T11:44:49.881Z,100329.09
2022-12-25T11:47:16.261Z,100326.72
2022-12-25T11:49:45.840Z,100329.13
2022-12-25T11:52:15.971Z,100328.19
2022-12-25T11:54:42.364Z,100313.97
2022-12-25T11:57:08.719Z,100312.00
2022-12-25T11:59:35.098Z,100314.44
2022-12-25T12:02:01.498Z,100305.97
2022-12-25T12:04:31.748Z,100313.66
2022-12-25T12:06:59.142Z,100302.00
2022-12-25T12:09:25.523Z,100302.47
2022-12-25T12:11:52.020Z,100294.59
2022-12-25T12:14:18.394Z,100290.34
2022-12-25T12:16:44.813Z,100279.16
2022-12-25T12:19:11.213Z,100287.47
2022-12-25T12:21:37.584Z,100298.97
2022-12-25T12:24:03.979Z,100274.91
2022-12-25T12:26:30.350Z,100273.38
2022-12-25T12:28:56.711Z,100266.88
2022-12-25T12:31:23.094Z,100259.91
2022-12-25T12:33:49.574Z,100256.56
2022-12-25T12:36:15.942Z,100268.53
2022-12-25T12:38:42.322Z,100267.31
2022-12-25T12:41:08.706Z,100281.41
2022-12-25T12:43:35.109Z,100278.69
2022-12-25T12:46:01.532Z,100296.56
2022-12-25T12:48:27.944Z,100279.28
2022-12-25T12:50:54.299Z,100268.69
2022-12-25T12:53:20.628Z,100264.44
2022-12-25T12:55:47.000Z,100268.84
2022-12-25T12:58:13.366Z,100270.34
2022-12-25T13:00:39.818Z,100277.16
2022-12-25T13:03:06.270Z,100279.28
2022-12-25T13:05:35.000Z,100259.91
2022-12-25T13:08:01.488Z,100251.44
2022-12-25T13:10:27.897Z,100261.72
2022-12-25T13:12:54.292Z,100255.22
2022-12-25T13:15:20.663Z,100256.13
2022-12-25T13:17:47.020Z,100253.69
2022-12-25T13:20:13.399Z,100254.00
2022-12-25T13:22:39.777Z,100264.16
2022-12-25T13:25:06.166Z,100260.97
2022-12-25T13:27:32.611Z,100254.44
2022-12-25T13:29:59.092Z,100253.53
2022-12-25T13:32:25.489Z,100258.84
2022-12-25T13:34:51.856Z,100248.25
2022-12-25T13:37:18.243Z,100266.44
2022-12-25T13:39:44.621Z,100258.25
2022-12-25T13:42:11.024Z,100259.44
2022-12-25T13:44:37.408Z,100262.31
2022-12-25T13:47:03.776Z,100264.00
2022-12-25T13:49:30.143Z,100262.81
2022-12-25T13:51:56.516Z,100258.06
2022-12-25T13:54:22.931Z,100254.16
2022-12-25T13:56:49.319Z,100254.63
2022-12-25T13:59:15.714Z,100259.16
2022-12-25T14:01:42.278Z,100266.25
2022-12-25T14:04:08.765Z,100274.59
2022-12-25T14:06:35.135Z,100271.88
2022-12-25T14:09:01.519Z,100272.03
2022-12-25T14:11:27.892Z,100282.94
2022-12-25T14:13:54.253Z,100292.75
2022-12-25T14:16:20.698Z,100293.06
2022-12-25T14:18:47.199Z,100287.16
2022-12-25T14:21:13.545Z,100295.47
2022-12-25T14:23:39.921Z,100297.91
2022-12-25T14:26:06.288Z,100304.53
2022-12-25T14:28:33.774Z,100300.75
2022-12-25T14:31:00.219Z,100290.03
2022-12-25T14:33:27.439Z,100302.88
2022-12-25T14:35:53.821Z,100295.47
2022-12-25T14:38:20.183Z,100292.75
2022-12-25T14:40:46.557Z,100287.16
2022-12-25T14:43:12.941Z,100288.22
2022-12-25T14:45:39.302Z,100291.69
2022-12-25T14:48:05.717Z,100296.69
2022-12-25T14:50:32.119Z,100297.63
2022-12-25T14:52:58.484Z,100294.75
2022-12-25T14:55:24.878Z,100310.31
2022-12-25T14:57:51.286Z,100311.84
2022-12-25T15:00:17.689Z,100300.03
2022-12-25T15:02:44.368Z,100300.94
2022-12-25T15:05:10.988Z,100306.06
2022-12-25T15:07:37.387Z,100311.25
2022-12-25T15:10:57.057Z,100305.78
2022-12-25T15:12:50.151Z,100316.06
2022-12-25T15:15:16.566Z,100310.91
2022-12-25T15:17:42.938Z,100310.03
2022-12-25T15:20:09.322Z,100315.50
2022-12-25T15:23:02.426Z,100326.53
2022-12-25T15:25:22.178Z,100312.75
2022-12-25T15:27:48.604Z,100312.75
2022-12-25T15:30:15.093Z,100315.50
2022-12-25T15:32:41.499Z,100306.06
2022-12-25T15:35:07.904Z,100312.75
2022-12-25T15:37:34.328Z,100313.06
2022-12-25T15:40:02.167Z,100315.63
2022-12-25T15:42:28.874Z,100319.41
2022-12-25T15:44:55.286Z,100315.16
2022-12-25T15:47:21.777Z,100310.66
2022-12-25T15:49:48.186Z,100305.34
2022-12-25T15:52:14.607Z,100304.56
2022-12-25T15:54:41.124Z,100302.47
2022-12-25T15:57:07.587Z,100302.03
2022-12-25T15:59:33.979Z,100304.00
2022-12-25T16:02:00.570Z,100310.66
2022-12-25T16:04:27.092Z,100299.13
2022-12-25T16:06:53.556Z,100310.19
2022-12-25T16:09:20.012Z,100313.66
2022-12-25T16:11:46.428Z,100313.53
2022-12-25T16:14:12.835Z,100322.75
2022-12-25T16:16:39.431Z,100331.66
2022-12-25T16:19:05.908Z,100341.38
2022-12-25T16:21:32.331Z,100344.25
2022-12-25T16:23:58.895Z,100347.72
2022-12-25T16:26:25.338Z,100355.00
2022-12-25T16:28:51.782Z,100368.63
2022-12-25T16:31:18.187Z,100370.72
2022-12-25T16:33:44.633Z,100371.94
2022-12-25T16:36:11.053Z,100379.22
2022-12-25T16:38:37.449Z,100379.38
2022-12-25T16:41:03.847Z,100386.34
2022-12-25T16:43:30.294Z,100388.44
2022-12-25T16:45:56.810Z,100393.56
2022-12-25T16:48:23.215Z,100389.34
2022-12-25T16:50:49.615Z,100378.31
2022-12-25T16:53:16.051Z,100377.97
2022-12-25T16:55:42.424Z,100379.94
2022-12-25T16:58:08.920Z,100379.00
2022-12-25T17:00:35.317Z,100372.66
2022-12-25T17:03:01.930Z,100369.91
2022-12-25T17:05:28.511Z,100361.63
2022-12-25T17:07:54.882Z,100360.69
2022-12-25T17:10:21.445Z,100361.75
2022-12-25T17:12:47.914Z,100359.38
2022-12-25T17:15:14.276Z,100361.63
2022-12-25T17:17:40.646Z,100371.47
2022-12-25T17:20:07.059Z,100367.97
2022-12-25T17:22:33.448Z,100364.47
2022-12-25T17:24:59.841Z,100365.22
2022-12-25T17:27:26.211Z,100366.66
2022-12-25T17:29:52.615Z,100371.88
2022-12-25T17:32:18.983Z,100382.38
2022-12-25T17:34:45.365Z,100382.09
2022-12-25T17:37:11.724Z,100385.72
2022-12-25T17:39:38.110Z,100388.75
2022-12-25T17:42:04.477Z,100377.84
2022-12-25T17:44:30.836Z,100385.28
2022-12-25T17:46:57.272Z,100378.47
2022-12-25T17:49:23.652Z,100378.31
2022-12-25T17:51:50.037Z,100384.22
2022-12-25T17:54:16.419Z,100392.09
2022-12-25T17:56:42.772Z,100384.81
2022-12-25T17:59:09.149Z,100408.72
2022-12-25T18:01:35.647Z,100401.94
2022-12-25T18:04:02.235Z,100395.16
2022-12-25T18:06:28.704Z,100394.69
2022-12-25T18:08:55.076Z,100386.69
2022-12-25T18:11:21.478Z,100397.59
2022-12-25T18:13:47.817Z,100401.22
2022-12-25T18:16:14.231Z,100404.03
2022-12-25T18:18:40.949Z,100400.25
2022-12-25T18:21:08.741Z,100395.38
2022-12-25T18:23:35.121Z,100400.13
2022-12-25T18:26:01.525Z,100408.16
2022-12-25T18:28:27.897Z,100408.94
2022-12-25T18:30:54.256Z,100410.88
2022-12-25T18:33:20.638Z,100405.91
2022-12-25T18:35:47.011Z,100409.69
2022-12-25T18:38:13.399Z,100415.00
2022-12-25T18:40:39.787Z,100417.13
2022-12-25T18:43:06.173Z,100415.75
2022-12-25T18:45:32.603Z,100418.44
2022-12-25T18:47:58.993Z,100408.94
2022-12-25T18:50:25.347Z,100411.69
2022-12-25T18:52:52.127Z,100411.22
2022-12-25T18:55:18.663Z,100419.41
2022-12-25T18:57:45.041Z,100433.50
2022-12-25T19:00:11.455Z,100434.56
2022-12-25T19:02:37.945Z,100434.84
2022-12-25T19:05:04.417Z,100432.28
2022-12-25T19:07:30.771Z,100423.31
2022-12-25T19:09:57.279Z,100425.19
2022-12-25T19:12:23.650Z,100428.50
2022-12-25T19:14:50.038Z,100430.78
2022-12-25T19:17:16.411Z,100427.59
2022-12-25T19:19:42.822Z,100445.47
2022-12-25T19:22:10.226Z,100445.19
2022-12-25T19:24:36.582Z,100429.88
2022-12-25T19:27:02.991Z,100436.22
2022-12-25T19:29:29.482Z,100438.44
2022-12-25T19:31:55.886Z,100436.19
2022-12-25T19:34:22.302Z,100431.16
2022-12-25T19:36:48.727Z,100435.13
2022-12-25T19:39:15.105Z,100417.28
2022-12-25T19:41:41.462Z,100436.66
2022-12-25T19:44:07.827Z,100428.78
2022-12-25T19:46:34.252Z,100436.66
2022-12-25T19:49:00.619Z,100439.53
2022-12-25T19:51:27.009Z,100446.81
2022-12-25T19:53:53.434Z,100445.59
2022-12-25T19:56:19.842Z,100446.81
2022-12-25T19:58:46.198Z,100448.03
2022-12-25T20:01:12.772Z,100450.91
2022-12-25T20:03:45.874Z,100444.56
2022-12-25T20:06:12.655Z,100452.59
2022-12-25T20:08:39.065Z,100462.13
2022-12-25T20:11:05.452Z,100466.06
2022-12-25T20:13:31.887Z,100463.34
2022-12-25T20:15:58.300Z,100461.50
2022-12-25T20:18:24.676Z,100461.06
2022-12-25T20:20:51.052Z,100462.13
2022-12-25T20:23:17.425Z,100466.94
2022-12-25T20:25:43.859Z,100472.88
2022-12-25T20:28:10.344Z,100483.16
2022-12-25T20:30:36.700Z,100483.63
2022-12-25T20:33:03.060Z,100497.41
2022-12-25T20:35:29.440Z,100501.53
2022-12-25T20:37:55.799Z,100505.25
2022-12-25T20:40:22.179Z,100513.34
2022-12-25T20:42:48.582Z,100521.66
2022-12-25T20:45:14.977Z,100519.09
2022-12-25T20:47:41.375Z,100510.91
2022-12-25T20:50:07.764Z,100511.19
2022-12-25T20:52:34.146Z,100515.16
2022-12-25T20:55:00.514Z,100509.06
2022-12-25T20:57:26.935Z,100517.56
2022-12-25T20:59:53.367Z,100516.03
2022-12-25T21:02:34.034Z,100517.56
2022-12-25T21:05:02.528Z,100528.59
2022-12-25T21:07:28.947Z,100532.25
2022-12-25T21:09:55.313Z,100546.88
2022-12-25T21:12:21.698Z,100542.84
2022-12-25T21:14:48.059Z,100552.47
2022-12-25T21:17:14.510Z,100551.41
2022-12-25T21:19:40.964Z,100552.34
2022-12-25T21:22:07.460Z,100558.56
2022-12-25T21:24:33.871Z,100553.25
2022-12-25T21:27:00.240Z,100553.28
2022-12-25T21:29:26.799Z,100553.28
2022-12-25T21:31:53.159Z,100564.19
2022-12-25T21:34:19.586Z,100561.31
2022-12-25T21:36:46.009Z,100567.66
2022-12-25T21:39:12.407Z,100567.38
2022-12-25T21:41:38.772Z,100576.75
2022-12-25T21:44:05.192Z,100553.72
2022-12-25T21:46:31.650Z,100566.13
2022-12-25T21:48:58.230Z,100569.47
2022-12-25T21:51:24.701Z,100553.72
2022-12-25T21:53:51.092Z,100561.59
2022-12-25T21:56:17.482Z,100572.63
2022-12-25T21:58:43.876Z,100571.09
2022-12-25T22:01:10.268Z,100567.44
2022-12-25T22:03:36.660Z,100570.25
2022-12-25T22:06:03.103Z,100570.78
2022-12-25T22:08:29.471Z,100566.53
2022-12-25T22:10:55.915Z,100573.38
2022-12-25T22:13:24.640Z,100576.75
2022-12-25T22:15:51.154Z,100569.00
2022-12-25T22:18:17.556Z,100581.59
2022-12-25T22:20:43.937Z,100580.38
2022-12-25T22:23:10.299Z,100582.81
2022-12-25T22:25:36.695Z,100581.72
2022-12-25T22:28:03.080Z,100584.03
2022-12-25T22:30:29.481Z,100580.25
2022-12-25T22:32:55.884Z,100577.50
2022-12-25T22:35:22.279Z,100584.16
2022-12-25T22:37:48.628Z,100596.31
2022-12-25T22:40:15.011Z,100610.03
2022-12-25T22:42:41.424Z,100605.41
2022-12-25T22:45:07.801Z,100613.22
2022-12-25T22:47:34.169Z,100611.03
2022-12-25T22:50:00.549Z,100602.81
2022-12-25T22:52:26.909Z,100601.41
2022-12-25T22:54:53.302Z,100606.88
2022-12-25T22:57:19.694Z,100598.06
2022-12-25T22:59:46.117Z,100613.97
2022-12-25T23:02:12.626Z,100612.56
2022-12-25T23:04:39.085Z,100611.84
2022-12-25T23:07:05.579Z,100617.00
2022-12-25T23:09:31.938Z,100604.78
2022-12-25T23:11:58.407Z,100620.22
2022-12-25T23:14:24.814Z,100618.06
2022-12-25T23:16:51.178Z,100611.84
2022-12-25T23:19:17.564Z,100611.97
2022-12-25T23:21:43.980Z,100617.91
2022-12-25T23:24:10.353Z,100618.03
2022-12-25T23:26:36.715Z,100615.59
2022-12-25T23:29:03.060Z,100622.28
2022-12-25T23:31:29.512Z,100626.97
2022-12-25T23:33:55.942Z,100632.09
2022-12-25T23:36:22.283Z,100641.38
2022-12-25T23:38:48.696Z,100637.25
2022-12-25T23:41:15.088Z,100637.53
2022-12-25T23:43:41.458Z,100646.19
2022-12-25T23:46:07.881Z,100653.25
2022-12-25T23:48:34.279Z,100664.94
2022-12-25T23:51:00.643Z,100656.88
2022-12-25T23:53:27.034Z,100667.03
2022-12-25T23:55:55.857Z,100660.69
2022-12-25T23:58:22.461Z,100663.31
